Airfield :
LOGIN :

Register | Disclaimer

   EN    FR    IT 

 










Legend :    VFR   Marginal VFR   IFR   Intensive IFR   Very Intensive IFR
Visi :
Ceiling :
>= 8 km
>= 3000ft
5 to 8 km
1000 to 3000 ft
1500m to 5 km
500 to 1000 ft
800 to 1500m
200 to 500 ft
< 800m
< 200 ft
Symbols :   Thunderstorms  Fog  Heavy snow  Heavy precipitations  Wind > 20 kt
SIGMETs :     Misc.  Thunderstorms  Icing  Turbulence  Mountain Waves  Volcanic Ashes






- Airport Elevation : 20 ft
- IATA code : TIV


LYTV - Tivat - Montenegro

CURRENT METAR :
  • 161730Z 14003KT CAVOK 23/21 Q1017 NOSIG

EXPIRED METARs :
  • 161700Z VRB02KT CAVOK 24/21 Q1017 NOSIG
  • 161630Z VRB01KT CAVOK 25/21 Q1017 NOSIG
  • 161600Z VRB02KT CAVOK 25/20 Q1017 NOSIG

TAF TAF LYTV
Valid from the 16 at 18:00 until the 17 at 18:00 UTC


161700Z 1618/1718 36005KT 9999 FEW040 SCT080 TX28/1713Z TN18/1703Z
BECMG 1704/1706 16012KT
TEMPO 1710/1718 VRB15G25KT TSRA FEW027CB BKN040



MET'MAP, your aeronautical weather chart ! - Copyright ORBIFLY December 2007 - Disclaimer

ORBIFLY MET'MAP TEAM :

Programming & Development : Alexandra Zaïnal
Concept & original design : Baudouin d'Aumeries
Assistance for programming : Marc-Olivier Méhu
Technical & hardware support : Manuel Goepfert

Contact : metmap@orbifly.com




SOURCES & CREDITS :

   NOAA